createdAt,value
2022-10-01T00:02:51.437Z,82.76
2022-10-01T00:06:16.591Z,82.76
2022-10-01T00:09:38.506Z,82.48
2022-10-01T00:13:00.200Z,82.50
2022-10-01T00:16:25.474Z,82.63
2022-10-01T00:19:46.866Z,82.94
2022-10-01T00:23:08.180Z,82.68
2022-10-01T00:26:31.906Z,82.78
2022-10-01T00:29:53.936Z,82.93
2022-10-01T00:33:16.678Z,82.99
2022-10-01T00:36:38.216Z,82.55
2022-10-01T00:39:59.304Z,82.80
2022-10-01T00:43:21.922Z,82.68
2022-10-01T00:46:46.548Z,83.29
2022-10-01T00:50:17.199Z,83.08
2022-10-01T00:53:39.625Z,83.00
2022-10-01T00:57:04.024Z,83.15
2022-10-01T01:00:26.211Z,82.81
2022-10-01T01:03:48.267Z,82.91
2022-10-01T01:07:11.503Z,82.77
2022-10-01T01:10:45.357Z,83.10
2022-10-01T01:14:16.772Z,83.03
2022-10-01T01:17:49.199Z,83.17
2022-10-01T01:21:22.294Z,83.41
2022-10-01T01:24:52.190Z,83.24
2022-10-01T01:28:23.967Z,83.79
2022-10-01T01:31:47.586Z,84.43
2022-10-01T01:35:12.531Z,84.62
2022-10-01T01:38:38.548Z,84.11
2022-10-01T01:42:05.850Z,83.71
2022-10-01T01:45:31.736Z,83.82
2022-10-01T01:48:54.470Z,83.93
2022-10-01T01:52:17.414Z,83.85
2022-10-01T01:55:40.032Z,83.87
2022-10-01T01:59:02.009Z,83.82
2022-10-01T02:02:28.803Z,83.73
2022-10-01T02:06:00.912Z,83.71
2022-10-01T02:09:30.462Z,83.75
2022-10-01T02:13:07.131Z,83.70
2022-10-01T02:16:34.765Z,83.73
2022-10-01T02:20:01.491Z,83.96
2022-10-01T02:23:28.037Z,84.04
2022-10-01T02:26:51.767Z,84.26
2022-10-01T02:30:15.286Z,84.38
2022-10-01T02:33:38.165Z,84.61
2022-10-01T02:37:05.402Z,84.99
2022-10-01T02:40:29.348Z,85.20
2022-10-01T02:43:57.801Z,84.95
2022-10-01T02:47:22.516Z,85.00
2022-10-01T02:50:49.990Z,85.04
2022-10-01T02:54:21.021Z,84.94
2022-10-01T02:57:43.375Z,85.06
2022-10-01T03:01:06.170Z,85.31
2022-10-01T03:04:28.003Z,85.42
2022-10-01T03:07:49.978Z,85.59
2022-10-01T03:11:12.584Z,85.61
2022-10-01T03:14:34.520Z,85.27
2022-10-01T03:17:56.084Z,85.17
2022-10-01T03:21:17.702Z,85.10
2022-10-01T03:24:38.982Z,84.95
2022-10-01T03:28:02.591Z,85.19
2022-10-01T03:31:24.393Z,85.57
2022-10-01T03:34:46.188Z,87.02
2022-10-01T03:38:08.298Z,87.74
2022-10-01T03:41:29.884Z,88.99
2022-10-01T03:44:53.010Z,89.18
2022-10-01T03:48:14.780Z,89.25
2022-10-01T03:51:37.496Z,89.79
2022-10-01T03:55:00.665Z,89.63
2022-10-01T03:58:23.328Z,89.83
2022-10-01T04:01:46.292Z,89.87
2022-10-01T04:05:08.875Z,89.58
2022-10-01T04:08:30.526Z,89.28
2022-10-01T04:11:52.915Z,89.32
2022-10-01T04:15:15.275Z,88.52
2022-10-01T04:18:38.574Z,88.17
2022-10-01T04:22:00.475Z,87.61
2022-10-01T04:25:22.081Z,87.05
2022-10-01T04:28:45.183Z,86.81
2022-10-01T04:32:07.116Z,86.20
2022-10-01T04:35:30.525Z,85.31
2022-10-01T04:38:53.987Z,85.18
2022-10-01T04:42:18.354Z,84.57
2022-10-01T04:45:39.870Z,84.27
2022-10-01T04:49:01.496Z,83.39
2022-10-01T04:52:24.659Z,83.19
2022-10-01T04:55:46.620Z,82.90
2022-10-01T04:59:07.978Z,82.34
2022-10-01T05:02:29.412Z,82.31
2022-10-01T05:05:50.781Z,81.89
2022-10-01T05:09:13.691Z,81.51
2022-10-01T05:12:35.040Z,81.42
2022-10-01T05:15:56.554Z,81.01
2022-10-01T05:19:18.335Z,80.48
2022-10-01T05:23:06.737Z,80.73
2022-10-01T05:26:29.660Z,80.28
2022-10-01T05:29:51.112Z,79.88
2022-10-01T05:33:12.561Z,79.75
2022-10-01T05:36:34.363Z,79.38
2022-10-01T05:39:58.550Z,79.43
2022-10-01T05:43:21.234Z,79.28
2022-10-01T05:46:43.658Z,78.91
2022-10-01T05:50:05.503Z,78.74
2022-10-01T05:53:27.491Z,78.56
2022-10-01T05:56:49.197Z,78.47
2022-10-01T06:00:14.701Z,78.33
2022-10-01T06:03:36.525Z,78.07
2022-10-01T06:06:57.984Z,77.53
2022-10-01T06:10:20.276Z,77.87
2022-10-01T06:13:45.140Z,77.72
2022-10-01T06:17:07.978Z,77.44
2022-10-01T06:20:29.401Z,77.30
2022-10-01T06:23:51.960Z,77.33
2022-10-01T06:27:13.653Z,77.24
2022-10-01T06:30:38.384Z,77.19
2022-10-01T06:34:01.763Z,76.64
2022-10-01T06:37:23.542Z,76.28
2022-10-01T06:40:45.275Z,76.47
2022-10-01T06:44:06.567Z,76.73
2022-10-01T06:47:28.140Z,76.80
2022-10-01T06:50:52.197Z,76.87
2022-10-01T06:54:14.574Z,76.65
2022-10-01T06:57:36.184Z,76.19
2022-10-01T07:01:00.115Z,76.19
2022-10-01T07:04:21.990Z,76.11
2022-10-01T07:07:45.578Z,76.49
2022-10-01T07:11:07.460Z,76.06
2022-10-01T07:14:28.912Z,75.28
2022-10-01T07:17:51.833Z,75.52
2022-10-01T07:21:13.582Z,75.66
2022-10-01T07:24:36.363Z,75.33
2022-10-01T07:27:59.922Z,75.21
2022-10-01T07:31:22.168Z,75.30
2022-10-01T07:34:43.853Z,75.16
2022-10-01T07:38:07.437Z,74.73
2022-10-01T07:41:30.578Z,74.91
2022-10-01T07:44:51.875Z,74.91
2022-10-01T07:48:14.896Z,74.70
2022-10-01T07:51:36.717Z,74.61
2022-10-01T07:54:58.500Z,74.37
2022-10-01T07:58:24.074Z,74.77
2022-10-01T08:01:51.676Z,74.29
2022-10-01T08:05:19.014Z,74.24
2022-10-01T08:08:40.440Z,73.71
2022-10-01T08:12:02.774Z,74.16
2022-10-01T08:15:25.474Z,73.56
2022-10-01T08:18:46.560Z,73.98
2022-10-01T08:22:08.233Z,73.53
2022-10-01T08:25:29.999Z,74.21
2022-10-01T08:28:51.372Z,73.98
2022-10-01T08:32:14.554Z,73.70
2022-10-01T08:35:39.067Z,73.23
2022-10-01T08:39:02.638Z,73.28
2022-10-01T08:42:48.713Z,73.85
2022-10-01T08:46:17.932Z,73.04
2022-10-01T08:49:47.398Z,73.11
2022-10-01T08:53:16.620Z,73.12
2022-10-01T08:56:44.461Z,73.30
2022-10-01T09:00:12.884Z,73.35
2022-10-01T09:03:35.040Z,72.85
2022-10-01T09:07:05.720Z,72.19
2022-10-01T09:10:42.214Z,72.00
2022-10-01T09:14:36.762Z,71.27
2022-10-01T09:18:15.792Z,70.95
2022-10-01T09:21:48.386Z,71.19
2022-10-01T09:25:18.238Z,71.03
2022-10-01T09:28:41.899Z,70.55
2022-10-01T09:32:06.360Z,70.82
2022-10-01T09:35:38.221Z,70.29
2022-10-01T09:39:10.929Z,70.44
2022-10-01T09:42:34.047Z,69.95
2022-10-01T09:45:56.636Z,69.63
2022-10-01T09:49:31.002Z,69.72
2022-10-01T09:52:54.796Z,68.97
2022-10-01T09:56:23.495Z,69.09
2022-10-01T09:59:53.072Z,68.48
2022-10-01T10:03:23.836Z,67.38
2022-10-01T10:06:45.581Z,67.93
2022-10-01T10:10:17.062Z,67.72
2022-10-01T10:13:41.838Z,67.73
2022-10-01T10:17:12.823Z,67.23
2022-10-01T10:20:40.427Z,67.33
2022-10-01T10:24:03.913Z,67.65
2022-10-01T10:27:28.465Z,67.20
2022-10-01T10:30:51.871Z,68.39
2022-10-01T10:34:17.744Z,67.57
2022-10-01T10:37:47.390Z,68.52
2022-10-01T10:41:19.593Z,68.08
2022-10-01T10:44:44.725Z,68.47
2022-10-01T10:48:13.788Z,69.02
2022-10-01T10:51:53.536Z,70.00
2022-10-01T10:55:23.420Z,69.80
2022-10-01T10:58:45.238Z,70.77
2022-10-01T11:02:16.015Z,71.50
2022-10-01T11:05:42.999Z,71.98
2022-10-01T11:09:11.727Z,71.99
2022-10-01T11:12:49.839Z,72.81
2022-10-01T11:16:29.555Z,73.89
2022-10-01T11:20:10.695Z,74.64
2022-10-01T11:23:51.516Z,75.06
2022-10-01T11:27:24.308Z,75.33
2022-10-01T11:30:58.860Z,76.54
2022-10-01T11:34:40.584Z,76.08
2022-10-01T11:38:26.585Z,77.06
2022-10-01T11:41:53.750Z,76.82
2022-10-01T11:45:22.422Z,77.54
2022-10-01T11:48:48.884Z,77.70
2022-10-01T11:52:18.630Z,78.03
2022-10-01T11:56:01.657Z,78.41
2022-10-01T11:59:28.374Z,78.85
2022-10-01T12:02:57.167Z,79.04
2022-10-01T12:06:25.286Z,79.10
2022-10-01T12:09:59.306Z,78.65
2022-10-01T12:13:28.945Z,79.16
2022-10-01T12:16:54.840Z,79.19
2022-10-01T12:20:24.262Z,79.18
2022-10-01T12:23:50.968Z,79.34
2022-10-01T12:27:30.411Z,79.41
2022-10-01T12:30:59.164Z,80.22
2022-10-01T12:34:30.298Z,80.21
2022-10-01T12:38:08.657Z,80.98
2022-10-01T12:41:48.195Z,81.11
2022-10-01T12:45:26.069Z,80.67
2022-10-01T12:48:59.662Z,81.34
2022-10-01T12:52:33.808Z,81.83
2022-10-01T12:56:02.322Z,82.06
2022-10-01T12:59:46.893Z,82.10
2022-10-01T13:03:28.629Z,82.17
2022-10-01T13:07:03.075Z,82.43
2022-10-01T13:10:46.108Z,82.77
2022-10-01T13:14:14.430Z,82.54
2022-10-01T13:17:43.360Z,82.58
2022-10-01T13:21:12.973Z,82.68
2022-10-01T13:24:41.821Z,82.36
2022-10-01T13:28:12.561Z,82.65
2022-10-01T13:31:40.234Z,83.14
2022-10-01T13:35:21.944Z,83.75
2022-10-01T13:38:45.066Z,83.46
2022-10-01T13:42:07.278Z,83.26
2022-10-01T13:45:34.229Z,83.00
2022-10-01T13:48:59.389Z,83.57
2022-10-01T13:52:21.925Z,83.72
2022-10-01T13:55:46.075Z,83.75
2022-10-01T13:59:28.729Z,83.70
2022-10-01T14:03:02.919Z,83.17
2022-10-01T14:06:30.809Z,83.87
2022-10-01T14:09:55.836Z,83.79
2022-10-01T14:13:40.539Z,84.53
2022-10-01T14:17:02.518Z,84.55
2022-10-01T14:20:28.219Z,84.61
2022-10-01T14:23:58.749Z,85.08
2022-10-01T14:27:26.848Z,84.73
2022-10-01T14:30:56.050Z,85.11
2022-10-01T14:34:35.772Z,85.00
2022-10-01T14:38:02.438Z,84.97
2022-10-01T14:41:26.925Z,85.50
2022-10-01T14:44:48.841Z,85.80
2022-10-01T14:48:11.334Z,85.87
2022-10-01T14:51:32.746Z,85.80
2022-10-01T14:55:01.725Z,85.81
2022-10-01T14:58:31.109Z,86.03
2022-10-01T15:01:59.427Z,86.12
2022-10-01T15:05:26.348Z,86.57
2022-10-01T15:08:49.773Z,86.32
2022-10-01T15:12:12.827Z,85.91
2022-10-01T15:15:41.737Z,85.95
2022-10-01T15:19:07.582Z,85.80
2022-10-01T15:22:30.871Z,86.33
2022-10-01T15:25:53.284Z,86.38
2022-10-01T15:29:16.937Z,86.16
2022-10-01T15:32:40.128Z,86.20
2022-10-01T15:36:04.302Z,87.16
2022-10-01T15:39:31.170Z,87.13
2022-10-01T15:43:25.529Z,86.73
2022-10-01T15:46:47.592Z,87.35
2022-10-01T15:50:20.024Z,87.10
2022-10-01T15:53:42.003Z,86.87
2022-10-01T15:57:04.856Z,87.17
2022-10-01T16:00:28.770Z,86.12
2022-10-01T16:03:54.571Z,85.67
2022-10-01T16:07:23.098Z,85.29
2022-10-01T16:10:45.246Z,85.28
2022-10-01T16:14:23.694Z,85.28
2022-10-01T16:17:55.832Z,85.53
2022-10-01T16:21:17.381Z,85.30
2022-10-01T16:24:45.056Z,85.14
2022-10-01T16:28:23.177Z,85.24
2022-10-01T16:31:46.318Z,84.96
2022-10-01T16:35:19.940Z,85.32
2022-10-01T16:38:41.389Z,85.54
2022-10-01T16:42:23.365Z,85.70
2022-10-01T16:45:46.252Z,85.67
2022-10-01T16:49:13.690Z,85.79
2022-10-01T16:52:35.318Z,85.96
2022-10-01T16:55:58.161Z,86.46
2022-10-01T16:59:22.400Z,86.58
2022-10-01T17:02:45.001Z,86.51
2022-10-01T17:06:06.546Z,86.58
2022-10-01T17:09:28.406Z,86.54
2022-10-01T17:12:50.478Z,86.56
2022-10-01T17:16:13.259Z,86.78
2022-10-01T17:19:35.091Z,87.11
2022-10-01T17:22:57.278Z,87.06
2022-10-01T17:26:18.943Z,86.75
2022-10-01T17:29:40.298Z,86.82
2022-10-01T17:33:03.098Z,87.29
2022-10-01T17:36:24.727Z,86.98
2022-10-01T17:39:46.001Z,87.20
2022-10-01T17:43:07.719Z,87.35
2022-10-01T17:46:30.704Z,87.26
2022-10-01T17:49:53.549Z,87.55
2022-10-01T17:53:15.731Z,87.56
2022-10-01T17:56:38.826Z,87.34
2022-10-01T18:00:00.129Z,87.15
2022-10-01T18:03:22.091Z,87.54
2022-10-01T18:06:48.723Z,87.45
2022-10-01T18:10:12.845Z,87.75
2022-10-01T18:13:34.875Z,88.30
2022-10-01T18:16:56.476Z,88.34
2022-10-01T18:20:18.363Z,88.41
2022-10-01T18:23:41.463Z,89.49
2022-10-01T18:27:02.972Z,90.29
2022-10-01T18:30:24.624Z,90.80
2022-10-01T18:33:48.737Z,90.99
2022-10-01T18:37:23.336Z,91.42
2022-10-01T18:40:50.055Z,91.04
2022-10-01T18:44:19.990Z,91.11
2022-10-01T18:47:53.246Z,91.25
2022-10-01T18:51:26.303Z,91.15
2022-10-01T18:54:58.448Z,91.27
2022-10-01T18:58:38.045Z,91.42
2022-10-01T19:02:14.763Z,91.53
2022-10-01T19:06:04.495Z,91.23
2022-10-01T19:09:33.792Z,91.67
2022-10-01T19:13:05.483Z,91.31
2022-10-01T19:16:40.556Z,91.10
2022-10-01T19:20:16.007Z,91.05
2022-10-01T19:24:20.678Z,91.32
2022-10-01T19:27:55.119Z,91.27
2022-10-01T19:31:25.994Z,90.55
2022-10-01T19:34:54.724Z,90.56
2022-10-01T19:38:21.049Z,91.09
2022-10-01T19:41:48.397Z,91.48
2022-10-01T19:45:21.355Z,91.90
2022-10-01T19:48:49.762Z,92.05
2022-10-01T19:52:16.623Z,92.24
2022-10-01T19:55:38.998Z,92.97
2022-10-01T19:59:03.156Z,93.21
2022-10-01T20:02:35.253Z,93.12
2022-10-01T20:06:00.363Z,92.98
2022-10-01T20:09:29.355Z,93.53
2022-10-01T20:13:02.924Z,93.48
2022-10-01T20:16:29.701Z,93.46
2022-10-01T20:19:59.746Z,93.47
2022-10-01T20:23:40.308Z,93.40
2022-10-01T20:27:18.760Z,94.24
2022-10-01T20:30:50.793Z,94.18
2022-10-01T20:34:23.040Z,94.48
2022-10-01T20:37:56.717Z,94.91
2022-10-01T20:41:20.626Z,95.16
2022-10-01T20:44:44.158Z,95.28
2022-10-01T20:48:12.440Z,95.40
2022-10-01T20:51:38.332Z,96.14
2022-10-01T20:55:05.131Z,95.59
2022-10-01T20:58:30.170Z,96.08
2022-10-01T21:02:02.258Z,96.75
2022-10-01T21:05:27.753Z,96.41
2022-10-01T21:08:53.554Z,96.78
2022-10-01T21:12:22.629Z,96.56
2022-10-01T21:15:54.813Z,96.40
2022-10-01T21:19:31.616Z,95.82
2022-10-01T21:23:12.480Z,95.56
2022-10-01T21:26:45.376Z,95.85
2022-10-01T21:30:11.604Z,94.98
2022-10-01T21:33:35.450Z,95.84
2022-10-01T21:37:05.191Z,95.75
2022-10-01T21:40:43.483Z,95.49
2022-10-01T21:44:23.607Z,96.08
2022-10-01T21:48:13.451Z,95.41
2022-10-01T21:51:48.537Z,95.42
2022-10-01T21:55:40.603Z,95.74
2022-10-01T21:59:07.254Z,95.96
2022-10-01T22:02:36.977Z,96.15
2022-10-01T22:06:09.721Z,96.20
2022-10-01T22:09:38.426Z,96.07
2022-10-01T22:13:05.333Z,95.82
2022-10-01T22:16:31.711Z,95.26
2022-10-01T22:19:57.604Z,95.18
2022-10-01T22:23:20.807Z,95.13
2022-10-01T22:26:48.124Z,95.41
2022-10-01T22:30:14.117Z,95.22
2022-10-01T22:33:39.831Z,95.52
2022-10-01T22:37:05.769Z,95.47
2022-10-01T22:40:32.089Z,94.72
2022-10-01T22:43:53.613Z,95.31
2022-10-01T22:47:42.041Z,95.34
2022-10-01T22:51:16.182Z,94.28
2022-10-01T22:54:49.875Z,94.05
2022-10-01T22:58:23.805Z,94.47
2022-10-01T23:01:53.631Z,94.31
2022-10-01T23:05:38.077Z,94.21
2022-10-01T23:09:07.687Z,93.96
2022-10-01T23:12:36.649Z,94.86
2022-10-01T23:16:05.793Z,94.27
2022-10-01T23:19:40.019Z,94.03
2022-10-01T23:23:25.189Z,94.27
2022-10-01T23:27:00.932Z,94.26
2022-10-01T23:30:22.930Z,94.09
2022-10-01T23:34:00.185Z,94.48
2022-10-01T23:37:39.310Z,93.41
2022-10-01T23:41:08.734Z,93.45
2022-10-01T23:44:37.400Z,93.57
2022-10-01T23:48:07.124Z,93.79
2022-10-01T23:51:35.325Z,94.12
2022-10-01T23:55:23.195Z,93.59
2022-10-01T23:58:50.604Z,94.29
